createdAt,value
2023-03-22T00:00:35.684Z,7.05
2023-03-22T00:03:27.705Z,7.00
2023-03-22T00:06:04.873Z,6.96
2023-03-22T00:08:41.782Z,6.92
2023-03-22T00:11:18.999Z,6.87
2023-03-22T00:13:55.370Z,6.83
2023-03-22T00:16:31.910Z,6.79
2023-03-22T00:19:08.417Z,6.76
2023-03-22T00:21:44.876Z,6.74
2023-03-22T00:24:21.833Z,6.72
2023-03-22T00:26:58.835Z,6.69
2023-03-22T00:29:35.084Z,6.66
2023-03-22T00:32:12.216Z,6.64
2023-03-22T00:34:49.086Z,6.62
2023-03-22T00:37:27.972Z,6.60
2023-03-22T00:40:04.760Z,6.58
2023-03-22T00:42:42.441Z,6.55
2023-03-22T00:45:19.385Z,6.53
2023-03-22T00:47:56.014Z,6.48
2023-03-22T00:50:32.703Z,6.46
2023-03-22T00:53:09.066Z,6.44
2023-03-22T00:55:45.625Z,6.42
2023-03-22T00:58:22.195Z,6.40
2023-03-22T01:00:58.597Z,6.38
2023-03-22T01:03:38.886Z,6.37
2023-03-22T01:06:16.644Z,6.35
2023-03-22T01:08:55.310Z,6.34
2023-03-22T01:11:31.981Z,6.33
2023-03-22T01:14:09.787Z,6.33
2023-03-22T01:16:46.364Z,6.33
2023-03-22T01:19:23.409Z,6.33
2023-03-22T01:22:00.634Z,6.32
2023-03-22T01:24:37.421Z,6.31
2023-03-22T01:27:13.816Z,6.30
2023-03-22T01:29:50.792Z,6.29
2023-03-22T01:32:27.116Z,6.29
2023-03-22T01:35:03.379Z,6.30
2023-03-22T01:37:39.818Z,6.30
2023-03-22T01:40:19.749Z,6.30
2023-03-22T01:42:57.609Z,6.29
2023-03-22T01:45:46.064Z,6.29
2023-03-22T01:48:31.425Z,6.30
2023-03-22T01:51:15.019Z,6.30
2023-03-22T01:54:36.534Z,6.28
2023-03-22T01:57:19.749Z,6.26
2023-03-22T01:59:56.335Z,6.22
2023-03-22T02:02:52.603Z,6.18
2023-03-22T02:05:38.182Z,6.11
2023-03-22T02:08:15.246Z,6.05
2023-03-22T02:11:22.875Z,5.98
2023-03-22T02:14:34.099Z,5.92
2023-03-22T02:17:51.455Z,5.85
2023-03-22T02:21:31.282Z,5.77
2023-03-22T02:25:24.730Z,5.69
2023-03-22T02:28:36.551Z,5.58
2023-03-22T02:31:49.928Z,5.52
2023-03-22T02:34:57.382Z,5.47
2023-03-22T02:38:18.770Z,5.43
2023-03-22T02:41:04.086Z,5.39
2023-03-22T02:43:52.661Z,5.37
2023-03-22T02:46:40.090Z,5.34
2023-03-22T02:49:32.238Z,5.32
2023-03-22T02:52:17.801Z,5.29
2023-03-22T02:55:05.878Z,5.27
2023-03-22T02:57:54.007Z,5.28
2023-03-22T03:00:32.407Z,5.28
2023-03-22T03:03:15.075Z,5.29
2023-03-22T03:05:58.778Z,5.29
2023-03-22T03:08:36.266Z,5.27
2023-03-22T03:11:14.219Z,5.23
2023-03-22T03:13:52.980Z,5.18
2023-03-22T03:16:36.821Z,5.14
2023-03-22T03:19:27.589Z,5.11
2023-03-22T03:22:18.793Z,5.07
2023-03-22T03:25:03.596Z,5.05
2023-03-22T03:27:49.931Z,5.01
2023-03-22T03:30:39.150Z,4.98
2023-03-22T03:33:25.174Z,4.95
2023-03-22T03:36:08.293Z,4.92
2023-03-22T03:38:52.210Z,4.92
2023-03-22T03:41:33.151Z,4.93
2023-03-22T03:44:10.543Z,4.94
2023-03-22T03:46:49.274Z,4.95
2023-03-22T03:49:27.405Z,4.94
2023-03-22T03:52:05.603Z,4.96
2023-03-22T03:54:42.832Z,4.95
2023-03-22T03:57:23.874Z,4.94
2023-03-22T04:00:00.154Z,4.95
2023-03-22T04:02:55.047Z,4.94
2023-03-22T04:05:56.179Z,4.93
2023-03-22T04:08:33.029Z,4.93
2023-03-22T04:11:10.404Z,4.93
2023-03-22T04:13:48.317Z,4.93
2023-03-22T04:16:26.465Z,4.93
2023-03-22T04:19:03.192Z,4.95
2023-03-22T04:21:39.533Z,4.97
2023-03-22T04:24:17.206Z,4.97
2023-03-22T04:26:54.927Z,4.99
2023-03-22T04:29:36.476Z,5.01
2023-03-22T04:32:27.220Z,5.02
2023-03-22T04:35:05.966Z,5.03
2023-03-22T04:37:43.142Z,5.03
2023-03-22T04:40:26.664Z,5.02
2023-03-22T04:43:13.720Z,5.01
2023-03-22T04:45:58.537Z,5.01
2023-03-22T04:48:42.202Z,5.00
2023-03-22T04:51:20.065Z,5.01
2023-03-22T04:54:43.259Z,5.03
2023-03-22T04:57:19.940Z,5.05
2023-03-22T04:59:57.471Z,5.08
2023-03-22T05:02:33.869Z,5.12
2023-03-22T05:05:12.178Z,5.15
2023-03-22T05:07:49.865Z,5.19
2023-03-22T05:10:26.118Z,5.20
2023-03-22T05:13:02.628Z,5.21
2023-03-22T05:15:49.782Z,5.22
2023-03-22T05:18:28.054Z,5.25
2023-03-22T05:21:11.813Z,5.28
2023-03-22T05:23:51.478Z,5.31
2023-03-22T05:26:30.083Z,5.34
2023-03-22T05:29:06.537Z,5.39
2023-03-22T05:31:55.808Z,5.43
2023-03-22T05:34:35.994Z,5.51
2023-03-22T05:37:23.664Z,5.60
2023-03-22T05:40:05.374Z,5.66
2023-03-22T05:42:45.642Z,5.70
2023-03-22T05:45:29.634Z,5.72
2023-03-22T05:48:18.957Z,5.73
2023-03-22T05:50:55.665Z,5.73
2023-03-22T05:53:33.229Z,5.72
2023-03-22T05:56:24.394Z,5.77
2023-03-22T05:59:04.293Z,5.86
2023-03-22T06:01:41.232Z,5.95
2023-03-22T06:04:27.532Z,6.06
2023-03-22T06:07:06.672Z,6.16
2023-03-22T06:09:52.404Z,6.27
2023-03-22T06:12:31.674Z,6.42
2023-03-22T06:15:25.137Z,6.59
2023-03-22T06:18:16.637Z,6.77
2023-03-22T06:20:55.264Z,6.93
2023-03-22T06:23:33.056Z,7.11
2023-03-22T06:26:11.470Z,7.26
2023-03-22T06:28:48.108Z,7.39
2023-03-22T06:31:24.580Z,7.54
2023-03-22T06:34:12.363Z,7.68
2023-03-22T06:36:51.149Z,7.80
2023-03-22T06:39:42.071Z,7.86
2023-03-22T06:42:18.615Z,7.93
2023-03-22T06:44:56.575Z,8.00
2023-03-22T06:47:39.229Z,8.07
2023-03-22T06:50:40.327Z,8.21
2023-03-22T06:53:21.579Z,8.26
2023-03-22T06:55:58.520Z,8.26
2023-03-22T06:58:35.026Z,8.34
2023-03-22T07:01:11.936Z,8.42
2023-03-22T07:03:48.658Z,8.44
2023-03-22T07:06:26.650Z,8.39
2023-03-22T07:09:04.031Z,8.39
2023-03-22T07:11:43.354Z,8.41
2023-03-22T07:14:19.790Z,8.47
2023-03-22T07:17:16.464Z,8.54
2023-03-22T07:19:53.649Z,8.64
2023-03-22T07:22:32.205Z,8.78
2023-03-22T07:25:11.674Z,8.97
2023-03-22T07:27:48.385Z,9.29
2023-03-22T07:30:25.308Z,9.55
2023-03-22T07:33:01.852Z,9.73
2023-03-22T07:35:39.069Z,9.93
2023-03-22T07:38:15.783Z,10.13
2023-03-22T07:40:55.986Z,10.42
2023-03-22T07:43:47.316Z,10.85
2023-03-22T07:46:47.658Z,11.40
2023-03-22T07:49:33.380Z,12.22
2023-03-22T07:52:16.842Z,12.75
2023-03-22T07:54:53.137Z,13.18
2023-03-22T07:57:29.429Z,13.51
2023-03-22T08:00:12.105Z,13.89
2023-03-22T08:03:03.974Z,14.24
2023-03-22T08:06:08.260Z,14.44
2023-03-22T08:08:44.675Z,14.98
2023-03-22T08:11:21.144Z,15.67
2023-03-22T08:13:57.612Z,16.25
2023-03-22T08:16:34.078Z,16.68
2023-03-22T08:19:11.532Z,16.99
2023-03-22T08:21:48.097Z,17.02
2023-03-22T08:24:36.893Z,17.00
2023-03-22T08:27:16.452Z,16.84
2023-03-22T08:29:59.200Z,16.60
2023-03-22T08:32:37.488Z,16.21
2023-03-22T08:35:16.024Z,15.93
2023-03-22T08:37:56.589Z,15.67
2023-03-22T08:40:36.532Z,15.46
2023-03-22T08:43:13.518Z,15.29
2023-03-22T08:45:50.511Z,15.13
2023-03-22T08:48:30.877Z,15.03
2023-03-22T08:51:23.839Z,14.97
2023-03-22T08:54:10.110Z,15.05
2023-03-22T08:57:39.116Z,15.19
2023-03-22T09:01:03.898Z,15.12
2023-03-22T09:03:46.527Z,15.02
2023-03-22T09:06:23.272Z,14.95
2023-03-22T09:09:00.059Z,14.86
2023-03-22T09:11:37.409Z,14.73
2023-03-22T09:14:15.135Z,14.60
2023-03-22T09:16:52.006Z,14.48
2023-03-22T09:19:28.754Z,14.46
2023-03-22T09:22:05.262Z,14.57
2023-03-22T09:24:49.195Z,14.77
2023-03-22T09:27:25.958Z,15.00
2023-03-22T09:30:02.531Z,15.12
2023-03-22T09:32:41.560Z,15.27
2023-03-22T09:35:19.693Z,15.43
2023-03-22T09:38:06.780Z,15.51
2023-03-22T09:41:00.590Z,15.52
2023-03-22T09:43:43.745Z,15.49
2023-03-22T09:46:31.578Z,15.40
2023-03-22T09:49:15.355Z,15.29
2023-03-22T09:51:54.884Z,15.14
2023-03-22T09:54:39.596Z,15.05
2023-03-22T09:57:30.504Z,15.02
2023-03-22T10:00:23.424Z,15.00
2023-03-22T10:03:21.131Z,15.02
2023-03-22T10:06:07.444Z,15.15
2023-03-22T10:09:00.593Z,15.29
2023-03-22T10:11:48.494Z,15.42
2023-03-22T10:14:39.327Z,15.58
2023-03-22T10:17:25.068Z,15.81
2023-03-22T10:20:09.927Z,16.07
2023-03-22T10:22:51.622Z,16.31
2023-03-22T10:25:38.250Z,16.49
2023-03-22T10:28:28.088Z,16.67
2023-03-22T10:31:06.014Z,16.88
2023-03-22T10:33:50.627Z,17.12
2023-03-22T10:36:35.031Z,17.35
2023-03-22T10:39:24.938Z,17.45
2023-03-22T10:42:06.782Z,17.55
2023-03-22T10:44:51.879Z,17.72
2023-03-22T10:47:41.498Z,17.88
2023-03-22T10:50:28.709Z,18.01
2023-03-22T10:53:12.844Z,18.14
2023-03-22T10:55:49.674Z,18.30
2023-03-22T10:58:32.396Z,18.42
2023-03-22T11:01:14.425Z,18.54
2023-03-22T11:03:57.253Z,18.65
2023-03-22T11:06:39.395Z,18.79
2023-03-22T11:09:23.549Z,18.90
2023-03-22T11:12:02.404Z,19.00
2023-03-22T11:14:45.482Z,19.11
2023-03-22T11:17:27.135Z,19.23
2023-03-22T11:20:07.850Z,19.28
2023-03-22T11:22:48.175Z,19.25
2023-03-22T11:25:32.510Z,19.15
2023-03-22T11:28:23.392Z,19.01
2023-03-22T11:31:11.668Z,18.78
2023-03-22T11:34:02.414Z,18.52
2023-03-22T11:36:54.753Z,18.28
2023-03-22T11:39:37.130Z,18.08
2023-03-22T11:42:23.642Z,18.02
2023-03-22T11:45:00.709Z,18.07
2023-03-22T11:47:41.622Z,18.13
2023-03-22T11:50:33.433Z,18.09
2023-03-22T11:53:17.882Z,17.98
2023-03-22T11:55:58.416Z,17.94
2023-03-22T11:58:55.788Z,17.95
2023-03-22T12:01:45.855Z,18.00
2023-03-22T12:04:30.832Z,18.07
2023-03-22T12:07:15.828Z,18.09
2023-03-22T12:10:01.456Z,18.09
2023-03-22T12:12:45.757Z,18.13
2023-03-22T12:15:28.944Z,18.23
2023-03-22T12:18:13.961Z,18.36
2023-03-22T12:20:57.239Z,18.57
2023-03-22T12:23:36.570Z,18.73
2023-03-22T12:26:21.580Z,18.81
2023-03-22T12:29:03.671Z,18.80
2023-03-22T12:31:52.551Z,18.75
2023-03-22T12:34:41.201Z,18.73
2023-03-22T12:37:28.019Z,18.71
2023-03-22T12:40:19.535Z,18.71
2023-03-22T12:43:11.808Z,18.75
2023-03-22T12:45:54.632Z,18.83
2023-03-22T12:48:40.873Z,18.94
2023-03-22T12:51:18.839Z,19.08
2023-03-22T12:53:59.979Z,19.19
2023-03-22T12:56:44.744Z,19.23
2023-03-22T12:59:28.219Z,19.20
2023-03-22T13:02:18.507Z,19.22
2023-03-22T13:05:01.069Z,19.24
2023-03-22T13:07:58.995Z,19.24
2023-03-22T13:11:05.313Z,19.25
2023-03-22T13:13:50.003Z,19.24
2023-03-22T13:17:00.800Z,19.22
2023-03-22T13:19:52.539Z,19.13
2023-03-22T13:23:11.206Z,19.08
2023-03-22T13:26:06.781Z,18.99
2023-03-22T13:28:44.010Z,18.81
2023-03-22T13:31:45.207Z,18.69
2023-03-22T13:34:33.970Z,18.58
2023-03-22T13:37:31.721Z,18.48
2023-03-22T13:40:25.100Z,18.39
2023-03-22T13:43:24.499Z,18.33
2023-03-22T13:46:50.789Z,18.32
2023-03-22T13:49:59.748Z,18.35
2023-03-22T13:52:45.854Z,18.39
2023-03-22T13:55:58.357Z,18.43
2023-03-22T13:58:56.206Z,18.45
2023-03-22T14:01:39.032Z,18.41
2023-03-22T14:04:22.978Z,18.42
2023-03-22T14:07:19.683Z,18.45
2023-03-22T14:10:01.533Z,18.49
2023-03-22T14:12:55.318Z,18.51
2023-03-22T14:15:37.363Z,18.58
2023-03-22T14:18:25.958Z,18.69
2023-03-22T14:21:09.469Z,18.76
